sensor_id;sensor_type;location;lat;lon;timestamp;temperature;humidity
1778;DHT22;886;50.082;8.222;2023-03-12T00:01:28;1.80;99.90
1778;DHT22;886;50.082;8.222;2023-03-12T00:04:00;1.80;99.90
1778;DHT22;886;50.082;8.222;2023-03-12T00:06:28;1.80;99.90
1778;DHT22;886;50.082;8.222;2023-03-12T00:08:56;1.70;99.90
1778;DHT22;886;50.082;8.222;2023-03-12T00:11:24;1.80;99.90
1778;DHT22;886;50.082;8.222;2023-03-12T00:13:52;1.80;99.90
1778;DHT22;886;50.082;8.222;2023-03-12T00:16:21;1.70;99.90
1778;DHT22;886;50.082;8.222;2023-03-12T00:18:51;1.70;99.90
1778;DHT22;886;50.082;8.222;2023-03-12T00:21:20;1.70;99.90
1778;DHT22;886;50.082;8.222;2023-03-12T00:23:48;1.70;99.90
1778;DHT22;886;50.082;8.222;2023-03-12T00:26:17;1.80;99.90
1778;DHT22;886;50.082;8.222;2023-03-12T00:28:47;1.70;99.90
1778;DHT22;886;50.082;8.222;2023-03-12T00:31:16;1.80;99.90
1778;DHT22;886;50.082;8.222;2023-03-12T00:33:46;1.80;99.90
1778;DHT22;886;50.082;8.222;2023-03-12T00:36:17;1.80;99.90
1778;DHT22;886;50.082;8.222;2023-03-12T00:38:45;1.90;99.90
1778;DHT22;886;50.082;8.222;2023-03-12T00:41:12;1.80;99.90
1778;DHT22;886;50.082;8.222;2023-03-12T00:43:39;1.70;99.90
1778;DHT22;886;50.082;8.222;2023-03-12T00:46:07;1.90;99.90
1778;DHT22;886;50.082;8.222;2023-03-12T00:48:34;1.80;99.90
1778;DHT22;886;50.082;8.222;2023-03-12T00:51:02;1.70;99.90
1778;DHT22;886;50.082;8.222;2023-03-12T00:53:31;1.80;99.90
1778;DHT22;886;50.082;8.222;2023-03-12T00:55:58;1.90;99.90
1778;DHT22;886;50.082;8.222;2023-03-12T00:58:25;1.80;99.90
1778;DHT22;886;50.082;8.222;2023-03-12T01:00:53;1.80;99.90
1778;DHT22;886;50.082;8.222;2023-03-12T01:03:21;1.90;99.90
1778;DHT22;886;50.082;8.222;2023-03-12T01:05:48;1.80;99.90
1778;DHT22;886;50.082;8.222;2023-03-12T01:08:20;1.80;99.90
1778;DHT22;886;50.082;8.222;2023-03-12T01:10:49;1.80;99.90
1778;DHT22;886;50.082;8.222;2023-03-12T01:13:17;1.70;99.90
1778;DHT22;886;50.082;8.222;2023-03-12T01:15:44;1.80;99.90
1778;DHT22;886;50.082;8.222;2023-03-12T01:18:11;1.80;99.90
1778;DHT22;886;50.082;8.222;2023-03-12T01:20:38;1.90;99.90
1778;DHT22;886;50.082;8.222;2023-03-12T01:23:07;1.80;99.90
1778;DHT22;886;50.082;8.222;2023-03-12T01:25:35;1.90;99.90
1778;DHT22;886;50.082;8.222;2023-03-12T01:28:04;1.70;99.90
1778;DHT22;886;50.082;8.222;2023-03-12T01:30:32;1.60;99.90
1778;DHT22;886;50.082;8.222;2023-03-12T01:32:59;1.80;99.90
1778;DHT22;886;50.082;8.222;2023-03-12T01:35:26;1.80;99.90
1778;DHT22;886;50.082;8.222;2023-03-12T01:38:13;1.90;99.90
1778;DHT22;886;50.082;8.222;2023-03-12T01:40:42;1.90;99.90
1778;DHT22;886;50.082;8.222;2023-03-12T01:43:27;1.90;99.90
1778;DHT22;886;50.082;8.222;2023-03-12T01:46:24;1.90;99.90
1778;DHT22;886;50.082;8.222;2023-03-12T01:48:56;2.00;99.90
1778;DHT22;886;50.082;8.222;2023-03-12T01:51:30;2.20;99.90
1778;DHT22;886;50.082;8.222;2023-03-12T01:54:02;2.20;99.90
1778;DHT22;886;50.082;8.222;2023-03-12T01:56:33;2.10;99.90
1778;DHT22;886;50.082;8.222;2023-03-12T01:59:08;2.00;99.90
1778;DHT22;886;50.082;8.222;2023-03-12T02:01:39;2.00;99.90
1778;DHT22;886;50.082;8.222;2023-03-12T02:04:07;2.10;99.90
1778;DHT22;886;50.082;8.222;2023-03-12T02:06:37;2.20;99.90
1778;DHT22;886;50.082;8.222;2023-03-12T02:09:09;2.10;99.90
1778;DHT22;886;50.082;8.222;2023-03-12T02:11:38;2.20;99.90
1778;DHT22;886;50.082;8.222;2023-03-12T02:14:08;2.20;99.90
1778;DHT22;886;50.082;8.222;2023-03-12T02:16:35;2.10;99.90
1778;DHT22;886;50.082;8.222;2023-03-12T02:19:04;2.20;99.90
1778;DHT22;886;50.082;8.222;2023-03-12T02:21:38;2.10;99.90
1778;DHT22;886;50.082;8.222;2023-03-12T02:24:10;2.10;99.90
1778;DHT22;886;50.082;8.222;2023-03-12T02:26:43;2.10;99.90
1778;DHT22;886;50.082;8.222;2023-03-12T02:29:10;2.00;99.90
1778;DHT22;886;50.082;8.222;2023-03-12T02:31:42;2.00;99.90
1778;DHT22;886;50.082;8.222;2023-03-12T02:34:10;2.00;99.90
1778;DHT22;886;50.082;8.222;2023-03-12T02:36:38;2.10;99.90
1778;DHT22;886;50.082;8.222;2023-03-12T02:39:06;2.10;99.90
1778;DHT22;886;50.082;8.222;2023-03-12T02:41:35;2.00;99.90
1778;DHT22;886;50.082;8.222;2023-03-12T02:44:07;1.90;99.90
1778;DHT22;886;50.082;8.222;2023-03-12T02:46:39;1.90;99.90
1778;DHT22;886;50.082;8.222;2023-03-12T02:49:07;2.00;99.90
1778;DHT22;886;50.082;8.222;2023-03-12T02:51:35;2.10;99.90
1778;DHT22;886;50.082;8.222;2023-03-12T02:54:02;2.10;99.90
1778;DHT22;886;50.082;8.222;2023-03-12T02:56:29;2.10;99.90
1778;DHT22;886;50.082;8.222;2023-03-12T02:58:57;2.10;99.90
1778;DHT22;886;50.082;8.222;2023-03-12T03:01:26;2.10;99.90
1778;DHT22;886;50.082;8.222;2023-03-12T03:03:54;2.10;99.90
1778;DHT22;886;50.082;8.222;2023-03-12T03:06:21;2.10;99.90
1778;DHT22;886;50.082;8.222;2023-03-12T03:08:48;2.20;99.90
1778;DHT22;886;50.082;8.222;2023-03-12T03:11:16;2.20;99.90
1778;DHT22;886;50.082;8.222;2023-03-12T03:13:44;2.10;99.90
1778;DHT22;886;50.082;8.222;2023-03-12T03:16:10;2.10;99.90
1778;DHT22;886;50.082;8.222;2023-03-12T03:18:41;2.10;99.90
1778;DHT22;886;50.082;8.222;2023-03-12T03:21:09;2.20;99.90
1778;DHT22;886;50.082;8.222;2023-03-12T03:23:36;2.20;99.90
1778;DHT22;886;50.082;8.222;2023-03-12T03:26:03;2.20;99.90
1778;DHT22;886;50.082;8.222;2023-03-12T03:28:31;2.30;99.90
1778;DHT22;886;50.082;8.222;2023-03-12T03:30:58;2.40;99.90
1778;DHT22;886;50.082;8.222;2023-03-12T03:33:28;2.30;99.90
1778;DHT22;886;50.082;8.222;2023-03-12T03:35:59;2.30;99.90
1778;DHT22;886;50.082;8.222;2023-03-12T03:38:28;2.30;99.90
1778;DHT22;886;50.082;8.222;2023-03-12T03:40:57;2.30;99.90
1778;DHT22;886;50.082;8.222;2023-03-12T03:43:24;2.30;99.90
1778;DHT22;886;50.082;8.222;2023-03-12T03:45:56;2.20;99.90
1778;DHT22;886;50.082;8.222;2023-03-12T03:48:24;2.20;99.90
1778;DHT22;886;50.082;8.222;2023-03-12T03:50:52;2.20;99.90
1778;DHT22;886;50.082;8.222;2023-03-12T03:53:20;2.10;99.90
1778;DHT22;886;50.082;8.222;2023-03-12T03:55:47;2.10;99.90
1778;DHT22;886;50.082;8.222;2023-03-12T03:58:14;2.20;99.90
1778;DHT22;886;50.082;8.222;2023-03-12T04:00:43;2.30;99.90
1778;DHT22;886;50.082;8.222;2023-03-12T04:03:11;2.20;99.90
1778;DHT22;886;50.082;8.222;2023-03-12T04:05:40;2.30;99.90
1778;DHT22;886;50.082;8.222;2023-03-12T04:08:11;2.40;99.90
1778;DHT22;886;50.082;8.222;2023-03-12T04:10:39;2.40;99.90
1778;DHT22;886;50.082;8.222;2023-03-12T04:13:07;2.50;99.90
1778;DHT22;886;50.082;8.222;2023-03-12T04:15:34;2.50;99.90
1778;DHT22;886;50.082;8.222;2023-03-12T04:18:01;2.50;99.90
1778;DHT22;886;50.082;8.222;2023-03-12T04:20:28;2.50;99.90
1778;DHT22;886;50.082;8.222;2023-03-12T04:22:55;2.50;99.90
1778;DHT22;886;50.082;8.222;2023-03-12T04:25:23;2.50;99.90
1778;DHT22;886;50.082;8.222;2023-03-12T04:27:52;2.60;99.90
1778;DHT22;886;50.082;8.222;2023-03-12T04:30:20;2.60;99.90
1778;DHT22;886;50.082;8.222;2023-03-12T04:32:47;2.60;99.90
1778;DHT22;886;50.082;8.222;2023-03-12T04:35:14;2.50;99.90
1778;DHT22;886;50.082;8.222;2023-03-12T04:37:42;2.60;99.90
1778;DHT22;886;50.082;8.222;2023-03-12T04:40:10;2.60;99.90
1778;DHT22;886;50.082;8.222;2023-03-12T04:42:38;2.70;99.90
1778;DHT22;886;50.082;8.222;2023-03-12T04:45:08;2.70;99.90
1778;DHT22;886;50.082;8.222;2023-03-12T04:47:37;2.70;99.90
1778;DHT22;886;50.082;8.222;2023-03-12T04:50:04;2.70;99.90
1778;DHT22;886;50.082;8.222;2023-03-12T04:52:32;2.70;99.90
1778;DHT22;886;50.082;8.222;2023-03-12T04:55:00;2.70;99.90
1778;DHT22;886;50.082;8.222;2023-03-12T04:57:27;2.80;99.90
1778;DHT22;886;50.082;8.222;2023-03-12T04:59:54;2.80;99.90
1778;DHT22;886;50.082;8.222;2023-03-12T05:02:22;2.70;99.90
1778;DHT22;886;50.082;8.222;2023-03-12T05:04:50;2.80;99.90
1778;DHT22;886;50.082;8.222;2023-03-12T05:07:17;2.80;99.90
1778;DHT22;886;50.082;8.222;2023-03-12T05:09:45;2.90;99.90
1778;DHT22;886;50.082;8.222;2023-03-12T05:12:13;2.60;99.90
1778;DHT22;886;50.082;8.222;2023-03-12T05:14:40;2.70;99.90
1778;DHT22;886;50.082;8.222;2023-03-12T05:17:07;2.70;99.90
1778;DHT22;886;50.082;8.222;2023-03-12T05:19:36;2.70;99.90
1778;DHT22;886;50.082;8.222;2023-03-12T05:22:03;2.80;99.90
1778;DHT22;886;50.082;8.222;2023-03-12T05:24:30;2.80;99.90
1778;DHT22;886;50.082;8.222;2023-03-12T05:26:57;2.90;99.90
1778;DHT22;886;50.082;8.222;2023-03-12T05:29:24;2.80;99.90
1778;DHT22;886;50.082;8.222;2023-03-12T05:31:51;2.80;99.90
1778;DHT22;886;50.082;8.222;2023-03-12T05:34:19;2.70;99.90
1778;DHT22;886;50.082;8.222;2023-03-12T05:36:47;2.80;99.90
1778;DHT22;886;50.082;8.222;2023-03-12T05:39:14;2.70;99.90
1778;DHT22;886;50.082;8.222;2023-03-12T05:41:41;2.80;99.90
1778;DHT22;886;50.082;8.222;2023-03-12T05:44:10;2.90;99.90
1778;DHT22;886;50.082;8.222;2023-03-12T05:46:39;3.00;99.90
1778;DHT22;886;50.082;8.222;2023-03-12T05:49:06;3.00;99.90
1778;DHT22;886;50.082;8.222;2023-03-12T05:51:34;3.00;99.90
1778;DHT22;886;50.082;8.222;2023-03-12T05:54:02;3.00;99.90
1778;DHT22;886;50.082;8.222;2023-03-12T05:56:30;2.90;99.90
1778;DHT22;886;50.082;8.222;2023-03-12T05:58:57;2.90;99.90
1778;DHT22;886;50.082;8.222;2023-03-12T06:01:27;2.90;99.90
1778;DHT22;886;50.082;8.222;2023-03-12T06:03:55;3.00;99.90
1778;DHT22;886;50.082;8.222;2023-03-12T06:06:23;2.90;99.90
1778;DHT22;886;50.082;8.222;2023-03-12T06:08:50;2.90;99.90
1778;DHT22;886;50.082;8.222;2023-03-12T06:11:19;3.00;99.90
1778;DHT22;886;50.082;8.222;2023-03-12T06:13:46;3.00;99.90
1778;DHT22;886;50.082;8.222;2023-03-12T06:16:16;3.00;99.90
1778;DHT22;886;50.082;8.222;2023-03-12T06:18:46;3.00;99.90
1778;DHT22;886;50.082;8.222;2023-03-12T06:21:15;3.00;99.90
1778;DHT22;886;50.082;8.222;2023-03-12T06:23:44;3.00;99.90
1778;DHT22;886;50.082;8.222;2023-03-12T06:26:12;3.00;99.90
1778;DHT22;886;50.082;8.222;2023-03-12T06:28:41;3.00;99.90
1778;DHT22;886;50.082;8.222;2023-03-12T06:31:08;3.10;99.90
1778;DHT22;886;50.082;8.222;2023-03-12T06:33:36;3.10;99.90
1778;DHT22;886;50.082;8.222;2023-03-12T06:36:05;3.00;99.90
1778;DHT22;886;50.082;8.222;2023-03-12T06:38:34;3.00;99.90
1778;DHT22;886;50.082;8.222;2023-03-12T06:41:02;3.20;99.90
1778;DHT22;886;50.082;8.222;2023-03-12T06:43:33;3.10;99.90
1778;DHT22;886;50.082;8.222;2023-03-12T06:46:03;3.10;99.90
1778;DHT22;886;50.082;8.222;2023-03-12T06:48:33;3.20;99.90
1778;DHT22;886;50.082;8.222;2023-03-12T06:51:03;3.30;99.90
1778;DHT22;886;50.082;8.222;2023-03-12T06:53:31;3.30;99.90
1778;DHT22;886;50.082;8.222;2023-03-12T06:55:59;3.20;99.90
1778;DHT22;886;50.082;8.222;2023-03-12T06:58:26;3.20;99.90
1778;DHT22;886;50.082;8.222;2023-03-12T07:00:54;3.20;99.90
1778;DHT22;886;50.082;8.222;2023-03-12T07:03:23;3.10;99.90
1778;DHT22;886;50.082;8.222;2023-03-12T07:05:51;3.00;99.90
1778;DHT22;886;50.082;8.222;2023-03-12T07:08:18;2.90;99.90
1778;DHT22;886;50.082;8.222;2023-03-12T07:10:46;2.90;99.90
1778;DHT22;886;50.082;8.222;2023-03-12T07:13:13;2.90;99.90
1778;DHT22;886;50.082;8.222;2023-03-12T07:15:40;2.80;99.90
1778;DHT22;886;50.082;8.222;2023-03-12T07:18:09;2.70;99.90
1778;DHT22;886;50.082;8.222;2023-03-12T07:20:40;2.80;99.90
1778;DHT22;886;50.082;8.222;2023-03-12T07:23:08;2.80;99.90
1778;DHT22;886;50.082;8.222;2023-03-12T07:25:36;2.90;99.90
1778;DHT22;886;50.082;8.222;2023-03-12T07:28:05;3.00;99.90
1778;DHT22;886;50.082;8.222;2023-03-12T07:30:32;2.90;99.90
1778;DHT22;886;50.082;8.222;2023-03-12T07:32:59;2.90;99.90
1778;DHT22;886;50.082;8.222;2023-03-12T07:35:27;2.90;99.90
1778;DHT22;886;50.082;8.222;2023-03-12T07:37:56;3.00;99.90
1778;DHT22;886;50.082;8.222;2023-03-12T07:40:24;3.00;99.90
1778;DHT22;886;50.082;8.222;2023-03-12T07:42:51;3.10;99.90
1778;DHT22;886;50.082;8.222;2023-03-12T07:45:20;3.20;99.90
1778;DHT22;886;50.082;8.222;2023-03-12T07:47:47;3.20;99.90
1778;DHT22;886;50.082;8.222;2023-03-12T07:50:16;3.10;99.90
1778;DHT22;886;50.082;8.222;2023-03-12T07:52:44;3.10;99.90
1778;DHT22;886;50.082;8.222;2023-03-12T07:55:14;3.20;99.90
1778;DHT22;886;50.082;8.222;2023-03-12T07:57:42;3.00;99.90
1778;DHT22;886;50.082;8.222;2023-03-12T08:00:11;3.00;99.90
1778;DHT22;886;50.082;8.222;2023-03-12T08:02:39;2.90;99.90
1778;DHT22;886;50.082;8.222;2023-03-12T08:05:06;3.00;99.90
1778;DHT22;886;50.082;8.222;2023-03-12T08:07:34;3.00;99.90
1778;DHT22;886;50.082;8.222;2023-03-12T08:10:04;3.00;99.90
1778;DHT22;886;50.082;8.222;2023-03-12T08:12:35;2.90;99.90
1778;DHT22;886;50.082;8.222;2023-03-12T08:15:03;2.90;99.90
1778;DHT22;886;50.082;8.222;2023-03-12T08:17:30;3.00;99.90
1778;DHT22;886;50.082;8.222;2023-03-12T08:19:57;3.10;99.90
1778;DHT22;886;50.082;8.222;2023-03-12T08:22:24;3.10;99.90
1778;DHT22;886;50.082;8.222;2023-03-12T08:24:52;2.90;99.90
1778;DHT22;886;50.082;8.222;2023-03-12T08:27:19;2.80;99.90
1778;DHT22;886;50.082;8.222;2023-03-12T08:29:47;2.90;99.90
1778;DHT22;886;50.082;8.222;2023-03-12T08:32:15;3.00;99.90
1778;DHT22;886;50.082;8.222;2023-03-12T08:34:42;3.00;99.90
1778;DHT22;886;50.082;8.222;2023-03-12T08:37:09;3.10;99.90
1778;DHT22;886;50.082;8.222;2023-03-12T08:39:36;3.10;99.90
1778;DHT22;886;50.082;8.222;2023-03-12T08:42:04;3.20;99.90
1778;DHT22;886;50.082;8.222;2023-03-12T08:44:33;3.10;99.90
1778;DHT22;886;50.082;8.222;2023-03-12T08:47:02;3.30;99.90
1778;DHT22;886;50.082;8.222;2023-03-12T08:49:29;3.30;99.90
1778;DHT22;886;50.082;8.222;2023-03-12T08:51:56;3.40;99.90
1778;DHT22;886;50.082;8.222;2023-03-12T08:54:23;3.30;99.90
1778;DHT22;886;50.082;8.222;2023-03-12T08:56:51;3.40;99.90
1778;DHT22;886;50.082;8.222;2023-03-12T08:59:19;3.30;99.90
1778;DHT22;886;50.082;8.222;2023-03-12T09:01:47;3.40;99.90
1778;DHT22;886;50.082;8.222;2023-03-12T09:04:16;3.40;99.90
1778;DHT22;886;50.082;8.222;2023-03-12T09:06:43;3.40;99.90
1778;DHT22;886;50.082;8.222;2023-03-12T09:09:10;3.30;99.90
1778;DHT22;886;50.082;8.222;2023-03-12T09:11:38;3.30;99.90
1778;DHT22;886;50.082;8.222;2023-03-12T09:14:06;3.40;99.90
1778;DHT22;886;50.082;8.222;2023-03-12T09:16:54;3.50;99.90
1778;DHT22;886;50.082;8.222;2023-03-12T09:19:26;3.50;99.90
1778;DHT22;886;50.082;8.222;2023-03-12T09:21:53;3.40;99.90
1778;DHT22;886;50.082;8.222;2023-03-12T09:24:21;3.40;99.90
1778;DHT22;886;50.082;8.222;2023-03-12T09:27:07;3.40;99.90
1778;DHT22;886;50.082;8.222;2023-03-12T09:29:34;3.50;99.90
1778;DHT22;886;50.082;8.222;2023-03-12T09:32:12;3.50;99.90
1778;DHT22;886;50.082;8.222;2023-03-12T09:34:56;3.40;99.90
1778;DHT22;886;50.082;8.222;2023-03-12T09:37:23;3.30;99.90
1778;DHT22;886;50.082;8.222;2023-03-12T09:39:51;3.40;99.90
1778;DHT22;886;50.082;8.222;2023-03-12T09:42:24;3.30;99.90
1778;DHT22;886;50.082;8.222;2023-03-12T09:44:55;3.40;99.90
1778;DHT22;886;50.082;8.222;2023-03-12T09:47:26;3.40;99.90
1778;DHT22;886;50.082;8.222;2023-03-12T09:50:01;3.50;99.90
1778;DHT22;886;50.082;8.222;2023-03-12T09:52:33;3.60;99.90
1778;DHT22;886;50.082;8.222;2023-03-12T09:55:07;3.70;99.90
1778;DHT22;886;50.082;8.222;2023-03-12T09:57:41;3.60;99.90
1778;DHT22;886;50.082;8.222;2023-03-12T10:00:13;3.70;99.90
1778;DHT22;886;50.082;8.222;2023-03-12T10:02:53;3.70;99.90
1778;DHT22;886;50.082;8.222;2023-03-12T10:05:36;3.70;99.90
1778;DHT22;886;50.082;8.222;2023-03-12T10:08:10;3.60;99.90
1778;DHT22;886;50.082;8.222;2023-03-12T10:11:01;3.60;99.90
1778;DHT22;886;50.082;8.222;2023-03-12T10:13:50;3.70;99.90
1778;DHT22;886;50.082;8.222;2023-03-12T10:19:34;3.70;99.90
1778;DHT22;886;50.082;8.222;2023-03-12T10:22:20;3.60;99.90
1778;DHT22;886;50.082;8.222;2023-03-12T10:25:04;3.70;99.90
1778;DHT22;886;50.082;8.222;2023-03-12T10:27:35;3.70;99.90
1778;DHT22;886;50.082;8.222;2023-03-12T10:30:15;3.80;99.90
1778;DHT22;886;50.082;8.222;2023-03-12T10:32:47;3.90;99.90
1778;DHT22;886;50.082;8.222;2023-03-12T10:35:19;3.80;99.90
1778;DHT22;886;50.082;8.222;2023-03-12T10:37:53;3.80;99.90
1778;DHT22;886;50.082;8.222;2023-03-12T10:40:23;3.90;99.90
1778;DHT22;886;50.082;8.222;2023-03-12T10:42:52;4.00;99.90
1778;DHT22;886;50.082;8.222;2023-03-12T10:45:25;4.00;99.90
1778;DHT22;886;50.082;8.222;2023-03-12T10:48:00;4.10;99.90
1778;DHT22;886;50.082;8.222;2023-03-12T10:50:32;4.10;99.90
1778;DHT22;886;50.082;8.222;2023-03-12T10:53:21;4.20;99.90
1778;DHT22;886;50.082;8.222;2023-03-12T10:56:02;4.00;99.90
1778;DHT22;886;50.082;8.222;2023-03-12T10:58:33;4.10;99.90
1778;DHT22;886;50.082;8.222;2023-03-12T11:01:04;4.20;99.90
1778;DHT22;886;50.082;8.222;2023-03-12T11:03:34;4.20;99.90
1778;DHT22;886;50.082;8.222;2023-03-12T11:06:02;4.20;99.90
1778;DHT22;886;50.082;8.222;2023-03-12T11:08:35;4.20;99.90
1778;DHT22;886;50.082;8.222;2023-03-12T11:11:04;4.20;99.90
1778;DHT22;886;50.082;8.222;2023-03-12T11:13:34;4.10;99.90
1778;DHT22;886;50.082;8.222;2023-03-12T11:16:24;4.20;99.90
1778;DHT22;886;50.082;8.222;2023-03-12T11:18:59;4.30;99.90
1778;DHT22;886;50.082;8.222;2023-03-12T11:21:28;4.40;99.90
1778;DHT22;886;50.082;8.222;2023-03-12T11:24:06;4.40;99.90
1778;DHT22;886;50.082;8.222;2023-03-12T11:26:43;4.40;99.90
1778;DHT22;886;50.082;8.222;2023-03-12T11:29:24;4.40;99.90
1778;DHT22;886;50.082;8.222;2023-03-12T11:32:05;4.50;99.90
1778;DHT22;886;50.082;8.222;2023-03-12T11:34:38;4.50;99.90
1778;DHT22;886;50.082;8.222;2023-03-12T11:37:11;4.50;99.90
1778;DHT22;886;50.082;8.222;2023-03-12T11:42:45;4.40;99.90
1778;DHT22;886;50.082;8.222;2023-03-12T11:45:25;4.60;99.90
1778;DHT22;886;50.082;8.222;2023-03-12T11:48:02;4.60;99.90
1778;DHT22;886;50.082;8.222;2023-03-12T11:50:45;4.70;99.90
1778;DHT22;886;50.082;8.222;2023-03-12T11:55:59;4.70;99.90
1778;DHT22;886;50.082;8.222;2023-03-12T11:58:48;4.80;99.90
1778;DHT22;886;50.082;8.222;2023-03-12T12:01:29;4.90;99.90
1778;DHT22;886;50.082;8.222;2023-03-12T12:04:12;4.90;99.90
1778;DHT22;886;50.082;8.222;2023-03-12T12:07:04;5.10;99.90
1778;DHT22;886;50.082;8.222;2023-03-12T12:09:42;5.10;99.90
1778;DHT22;886;50.082;8.222;2023-03-12T12:12:24;5.20;99.90
1778;DHT22;886;50.082;8.222;2023-03-12T12:15:17;5.40;99.90
1778;DHT22;886;50.082;8.222;2023-03-12T12:17:58;5.30;99.90
1778;DHT22;886;50.082;8.222;2023-03-12T12:20:38;5.40;99.90
1778;DHT22;886;50.082;8.222;2023-03-12T12:23:15;5.30;99.90
1778;DHT22;886;50.082;8.222;2023-03-12T12:26:05;5.30;99.90
1778;DHT22;886;50.082;8.222;2023-03-12T12:28:44;5.40;99.90
1778;DHT22;886;50.082;8.222;2023-03-12T12:31:29;5.50;99.90
1778;DHT22;886;50.082;8.222;2023-03-12T12:34:22;5.60;99.90
1778;DHT22;886;50.082;8.222;2023-03-12T12:37:03;5.70;99.90
1778;DHT22;886;50.082;8.222;2023-03-12T12:39:44;5.70;99.90
1778;DHT22;886;50.082;8.222;2023-03-12T12:42:17;5.70;99.90
1778;DHT22;886;50.082;8.222;2023-03-12T12:44:48;5.80;99.90
1778;DHT22;886;50.082;8.222;2023-03-12T12:47:25;5.90;99.90
1778;DHT22;886;50.082;8.222;2023-03-12T12:49:59;5.90;99.90
1778;DHT22;886;50.082;8.222;2023-03-12T12:52:27;6.00;99.90
1778;DHT22;886;50.082;8.222;2023-03-12T12:54:59;5.90;99.90
1778;DHT22;886;50.082;8.222;2023-03-12T12:57:36;5.90;99.90
1778;DHT22;886;50.082;8.222;2023-03-12T13:00:32;6.00;99.90
1778;DHT22;886;50.082;8.222;2023-03-12T13:03:06;6.00;99.90
1778;DHT22;886;50.082;8.222;2023-03-12T13:05:45;6.00;99.90
1778;DHT22;886;50.082;8.222;2023-03-12T13:09:00;6.00;99.90
1778;DHT22;886;50.082;8.222;2023-03-12T13:11:42;6.20;99.90
1778;DHT22;886;50.082;8.222;2023-03-12T13:14:22;6.20;99.90
1778;DHT22;886;50.082;8.222;2023-03-12T13:17:20;6.30;99.90
1778;DHT22;886;50.082;8.222;2023-03-12T13:19:53;6.50;99.90
1778;DHT22;886;50.082;8.222;2023-03-12T13:22:44;6.60;99.90
1778;DHT22;886;50.082;8.222;2023-03-12T13:25:25;6.70;99.90
1778;DHT22;886;50.082;8.222;2023-03-12T13:28:14;6.80;99.90
1778;DHT22;886;50.082;8.222;2023-03-12T13:30:58;6.70;99.90
1778;DHT22;886;50.082;8.222;2023-03-12T13:33:38;6.70;99.90
1778;DHT22;886;50.082;8.222;2023-03-12T13:36:19;6.70;99.90
1778;DHT22;886;50.082;8.222;2023-03-12T13:38:55;6.70;99.90
1778;DHT22;886;50.082;8.222;2023-03-12T13:41:30;6.70;99.90
1778;DHT22;886;50.082;8.222;2023-03-12T13:44:00;6.70;99.90
1778;DHT22;886;50.082;8.222;2023-03-12T13:47:04;6.70;99.90
1778;DHT22;886;50.082;8.222;2023-03-12T13:49:53;6.70;99.90
1778;DHT22;886;50.082;8.222;2023-03-12T13:52:24;6.80;99.90
1778;DHT22;886;50.082;8.222;2023-03-12T13:54:59;6.70;99.90
1778;DHT22;886;50.082;8.222;2023-03-12T13:57:36;6.80;99.90
1778;DHT22;886;50.082;8.222;2023-03-12T14:00:14;6.80;99.90
1778;DHT22;886;50.082;8.222;2023-03-12T14:02:45;6.80;99.90
1778;DHT22;886;50.082;8.222;2023-03-12T14:05:17;6.90;99.90
1778;DHT22;886;50.082;8.222;2023-03-12T14:07:56;6.80;99.90
1778;DHT22;886;50.082;8.222;2023-03-12T14:10:46;6.80;99.90
1778;DHT22;886;50.082;8.222;2023-03-12T14:13:29;6.90;99.90
1778;DHT22;886;50.082;8.222;2023-03-12T14:16:09;6.80;99.90
1778;DHT22;886;50.082;8.222;2023-03-12T14:18:44;6.80;99.90
1778;DHT22;886;50.082;8.222;2023-03-12T14:21:13;6.70;99.90
1778;DHT22;886;50.082;8.222;2023-03-12T14:23:45;6.70;99.90
1778;DHT22;886;50.082;8.222;2023-03-12T14:26:19;6.80;99.90
1778;DHT22;886;50.082;8.222;2023-03-12T14:28:56;6.80;99.90
1778;DHT22;886;50.082;8.222;2023-03-12T14:31:28;6.80;99.90
1778;DHT22;886;50.082;8.222;2023-03-12T14:33:58;6.90;99.90
1778;DHT22;886;50.082;8.222;2023-03-12T14:36:36;6.90;99.90
1778;DHT22;886;50.082;8.222;2023-03-12T14:39:17;6.90;99.90
1778;DHT22;886;50.082;8.222;2023-03-12T14:41:53;6.90;99.90
1778;DHT22;886;50.082;8.222;2023-03-12T14:44:23;6.90;99.90
1778;DHT22;886;50.082;8.222;2023-03-12T14:46:57;7.00;99.90
1778;DHT22;886;50.082;8.222;2023-03-12T14:49:27;7.00;99.90
1778;DHT22;886;50.082;8.222;2023-03-12T14:51:55;7.00;99.90
1778;DHT22;886;50.082;8.222;2023-03-12T14:54:24;7.10;99.90
1778;DHT22;886;50.082;8.222;2023-03-12T14:56:52;7.20;99.90
1778;DHT22;886;50.082;8.222;2023-03-12T14:59:23;7.20;99.90
1778;DHT22;886;50.082;8.222;2023-03-12T15:01:57;7.30;99.90
1778;DHT22;886;50.082;8.222;2023-03-12T15:04:27;7.30;99.90
1778;DHT22;886;50.082;8.222;2023-03-12T15:06:56;7.30;99.90
1778;DHT22;886;50.082;8.222;2023-03-12T15:09:27;7.30;99.90
1778;DHT22;886;50.082;8.222;2023-03-12T15:11:58;7.30;99.90
1778;DHT22;886;50.082;8.222;2023-03-12T15:14:31;7.30;99.90
1778;DHT22;886;50.082;8.222;2023-03-12T15:17:02;7.40;99.90
1778;DHT22;886;50.082;8.222;2023-03-12T15:19:33;7.50;99.90
1778;DHT22;886;50.082;8.222;2023-03-12T15:22:02;7.40;99.90
1778;DHT22;886;50.082;8.222;2023-03-12T15:24:36;7.50;99.90
1778;DHT22;886;50.082;8.222;2023-03-12T15:27:18;7.50;99.90
1778;DHT22;886;50.082;8.222;2023-03-12T15:29:47;7.60;99.90
1778;DHT22;886;50.082;8.222;2023-03-12T15:32:17;7.60;99.90
1778;DHT22;886;50.082;8.222;2023-03-12T15:34:51;7.60;99.90
1778;DHT22;886;50.082;8.222;2023-03-12T15:37:23;7.60;99.90
1778;DHT22;886;50.082;8.222;2023-03-12T15:40:07;7.70;99.90
1778;DHT22;886;50.082;8.222;2023-03-12T15:42:46;7.70;99.90
1778;DHT22;886;50.082;8.222;2023-03-12T15:45:19;7.70;99.90
1778;DHT22;886;50.082;8.222;2023-03-12T15:47:50;7.70;99.90
1778;DHT22;886;50.082;8.222;2023-03-12T15:50:21;7.70;99.90
1778;DHT22;886;50.082;8.222;2023-03-12T15:53:00;7.70;99.90
1778;DHT22;886;50.082;8.222;2023-03-12T15:55:30;7.70;99.90
1778;DHT22;886;50.082;8.222;2023-03-12T15:57:58;7.70;99.90
1778;DHT22;886;50.082;8.222;2023-03-12T16:00:27;7.70;99.90
1778;DHT22;886;50.082;8.222;2023-03-12T16:02:58;7.80;99.90
1778;DHT22;886;50.082;8.222;2023-03-12T16:05:29;7.80;99.90
1778;DHT22;886;50.082;8.222;2023-03-12T16:08:00;7.80;99.90
1778;DHT22;886;50.082;8.222;2023-03-12T16:10:28;7.80;99.90
1778;DHT22;886;50.082;8.222;2023-03-12T16:13:00;7.80;99.90
1778;DHT22;886;50.082;8.222;2023-03-12T16:15:30;7.80;99.90
1778;DHT22;886;50.082;8.222;2023-03-12T16:18:01;7.80;99.90
1778;DHT22;886;50.082;8.222;2023-03-12T16:20:28;7.70;99.90
1778;DHT22;886;50.082;8.222;2023-03-12T16:22:56;7.70;99.90
1778;DHT22;886;50.082;8.222;2023-03-12T16:25:23;7.80;99.90
1778;DHT22;886;50.082;8.222;2023-03-12T16:27:54;7.80;99.90
1778;DHT22;886;50.082;8.222;2023-03-12T16:30:25;7.90;99.90
1778;DHT22;886;50.082;8.222;2023-03-12T16:32:55;7.90;99.90
1778;DHT22;886;50.082;8.222;2023-03-12T16:35:24;7.90;99.90
1778;DHT22;886;50.082;8.222;2023-03-12T16:37:54;7.90;99.90
1778;DHT22;886;50.082;8.222;2023-03-12T16:40:23;7.90;99.90
1778;DHT22;886;50.082;8.222;2023-03-12T16:42:59;7.90;99.90
1778;DHT22;886;50.082;8.222;2023-03-12T16:45:30;7.90;99.90
1778;DHT22;886;50.082;8.222;2023-03-12T16:48:02;7.90;99.90
1778;DHT22;886;50.082;8.222;2023-03-12T16:50:32;7.80;99.90
1778;DHT22;886;50.082;8.222;2023-03-12T16:53:02;7.80;99.90
1778;DHT22;886;50.082;8.222;2023-03-12T16:55:42;7.90;99.90
1778;DHT22;886;50.082;8.222;2023-03-12T16:58:12;7.90;99.90
1778;DHT22;886;50.082;8.222;2023-03-12T17:00:40;7.90;99.90
1778;DHT22;886;50.082;8.222;2023-03-12T17:03:17;7.90;99.90
1778;DHT22;886;50.082;8.222;2023-03-12T17:05:47;7.90;99.90
1778;DHT22;886;50.082;8.222;2023-03-12T17:08:15;7.90;99.90
1778;DHT22;886;50.082;8.222;2023-03-12T17:10:42;7.90;99.90
1778;DHT22;886;50.082;8.222;2023-03-12T17:13:17;7.90;99.90